Time;durP1;ratioP1;P1;durP2;ratioP2;P2;SDS_P1;SDS_P2;PMS_P1;PMS_P2;Temp;Humidity;BMP_temperature;BMP_pressure;BME280_temperature;BME280_humidity;BME280_pressure;Samples;Min_cycle;Max_cycle;Signal;HPM_P1;HPM_P2
2024/03/18 00:00:56;;;;;;;5.55;2.17;;;;;;;;;;4732832;30;20067;-82
2024/03/18 00:03:27;;;;;;;7.05;2.97;;;;;;;;;;4718208;30;20081;-81
2024/03/18 00:05:55;;;;;;;3.70;2.00;;;;;;;;;;4703913;30;20057;-82
2024/03/18 00:08:24;;;;;;;5.47;2.25;;;;;;;;;;4718026;30;20053;-81
2024/03/18 00:10:52;;;;;;;10.02;2.25;;;;;;;;;;4717777;30;20056;-83
2024/03/18 00:13:21;;;;;;;8.63;2.05;;;;;;;;;;4717468;30;20044;-81
2024/03/18 00:15:49;;;;;;;8.63;2.50;;;;;;;;;;4718034;30;20063;-81
2024/03/18 00:18:17;;;;;;;5.93;2.20;;;;;;;;;;4714534;30;20048;-80
2024/03/18 00:20:45;;;;;;;3.80;1.80;;;;;;;;;;4715942;30;20059;-81
2024/03/18 00:23:14;;;;;;;4.35;1.95;;;;;;;;;;4716187;30;20800;-80
2024/03/18 00:25:43;;;;;;;6.47;2.33;;;;;;;;;;4716692;30;20056;-82
2024/03/18 00:28:12;;;;;;;9.60;2.53;;;;;;;;;;4711148;30;20049;-82
2024/03/18 00:30:40;;;;;;;9.68;2.42;;;;;;;;;;4716507;30;20057;-83
2024/03/18 00:33:10;;;;;;;12.23;2.53;;;;;;;;;;4716410;30;20062;-85
2024/03/18 00:35:38;;;;;;;8.57;2.58;;;;;;;;;;4716316;30;20056;-81
2024/03/18 00:38:06;;;;;;;7.53;2.50;;;;;;;;;;4702252;30;20048;-83
2024/03/18 00:40:35;;;;;;;9.70;2.60;;;;;;;;;;4716707;30;20056;-82
2024/03/18 00:43:03;;;;;;;4.53;2.55;;;;;;;;;;4716420;30;20045;-83
2024/03/18 00:45:31;;;;;;;6.40;2.40;;;;;;;;;;4717151;30;20064;-80
2024/03/18 00:47:59;;;;;;;10.07;2.53;;;;;;;;;;4719792;30;20144;-82
2024/03/18 00:50:28;;;;;;;7.10;2.25;;;;;;;;;;4719976;30;20048;-80
2024/03/18 00:52:56;;;;;;;7.53;2.72;;;;;;;;;;4718349;30;20396;-81
2024/03/18 00:55:25;;;;;;;6.82;2.45;;;;;;;;;;4690166;30;20052;-84
2024/03/18 00:57:53;;;;;;;7.38;2.58;;;;;;;;;;4718468;30;20056;-83
2024/03/18 01:00:21;;;;;;;6.35;2.80;;;;;;;;;;4719536;30;20059;-85
2024/03/18 01:02:49;;;;;;;7.90;2.63;;;;;;;;;;4719705;30;20060;-83
2024/03/18 01:05:17;;;;;;;6.82;2.88;;;;;;;;;;4719126;30;20052;-83
2024/03/18 01:07:47;;;;;;;7.38;2.63;;;;;;;;;;4719463;30;20472;-81
2024/03/18 01:10:16;;;;;;;5.43;2.47;;;;;;;;;;4719274;30;20063;-81
2024/03/18 01:12:44;;;;;;;9.10;2.63;;;;;;;;;;4723948;30;20045;-82
2024/03/18 01:15:12;;;;;;;5.82;2.47;;;;;;;;;;4724912;30;20053;-81
2024/03/18 01:17:40;;;;;;;6.82;2.58;;;;;;;;;;4723822;30;20053;-81
2024/03/18 01:20:15;;;;;;;6.53;2.53;;;;;;;;;;4726228;30;20052;-79
2024/03/18 01:22:45;;;;;;;4.78;2.42;;;;;;;;;;4734077;30;20052;-79
2024/03/18 01:25:13;;;;;;;9.18;2.50;;;;;;;;;;4734139;30;20048;-80
2024/03/18 01:27:43;;;;;;;6.97;2.90;;;;;;;;;;4718832;30;20059;-80
2024/03/18 01:30:15;;;;;;;8.65;2.50;;;;;;;;;;4727521;30;20067;-80
2024/03/18 01:32:43;;;;;;;7.15;2.63;;;;;;;;;;4731292;30;20058;-80
2024/03/18 01:35:15;;;;;;;5.00;2.25;;;;;;;;;;4731451;30;20048;-78
2024/03/18 01:37:44;;;;;;;14.32;2.60;;;;;;;;;;4721936;30;20072;-81
2024/03/18 01:40:13;;;;;;;5.40;2.60;;;;;;;;;;4716644;30;20535;-83
2024/03/18 01:42:45;;;;;;;5.20;2.03;;;;;;;;;;4730769;30;20077;-83
2024/03/18 01:45:22;;;;;;;7.63;2.40;;;;;;;;;;4716366;30;20047;-81
2024/03/18 01:47:55;;;;;;;7.30;2.45;;;;;;;;;;4718783;30;20501;-82
2024/03/18 01:50:25;;;;;;;11.45;2.40;;;;;;;;;;4718907;30;20049;-81
2024/03/18 01:52:53;;;;;;;7.63;2.90;;;;;;;;;;4718801;30;20044;-82
2024/03/18 01:55:21;;;;;;;4.57;2.30;;;;;;;;;;4717820;30;20061;-81
2024/03/18 01:57:52;;;;;;;7.75;2.58;;;;;;;;;;4717841;30;20057;-81
2024/03/18 02:00:32;;;;;;;6.68;2.83;;;;;;;;;;4717507;30;20056;-83
2024/03/18 02:03:01;;;;;;;10.73;3.03;;;;;;;;;;4717923;30;20051;-83
2024/03/18 02:05:31;;;;;;;7.47;2.80;;;;;;;;;;4717677;30;20059;-83
2024/03/18 02:07:59;;;;;;;11.60;2.80;;;;;;;;;;4717776;30;20064;-85
2024/03/18 02:10:28;;;;;;;4.65;2.40;;;;;;;;;;4718137;30;20531;-81
2024/03/18 02:13:00;;;;;;;5.13;2.58;;;;;;;;;;4718075;30;20064;-85
2024/03/18 02:15:30;;;;;;;6.25;3.00;;;;;;;;;;4716496;30;20052;-83
2024/03/18 02:17:59;;;;;;;8.50;3.05;;;;;;;;;;4718265;30;20048;-81
2024/03/18 02:20:27;;;;;;;7.10;2.75;;;;;;;;;;4719618;30;20049;-80
2024/03/18 02:22:56;;;;;;;9.23;2.95;;;;;;;;;;4719462;30;20406;-80
2024/03/18 02:25:24;;;;;;;9.27;2.88;;;;;;;;;;4719382;30;20056;-81
2024/03/18 02:27:52;;;;;;;14.55;3.35;;;;;;;;;;4719763;30;20056;-81
2024/03/18 02:30:20;;;;;;;9.55;2.92;;;;;;;;;;4719414;30;20044;-81
2024/03/18 02:32:48;;;;;;;7.90;3.42;;;;;;;;;;4719262;30;20048;-80
2024/03/18 02:35:16;;;;;;;8.63;2.92;;;;;;;;;;4719630;30;20060;-80
2024/03/18 02:37:46;;;;;;;8.25;2.97;;;;;;;;;;4718749;30;20059;-80
2024/03/18 02:40:14;;;;;;;6.40;3.33;;;;;;;;;;4718663;30;20425;-80
2024/03/18 02:42:42;;;;;;;11.52;2.85;;;;;;;;;;4719304;30;20056;-80
2024/03/18 02:45:12;;;;;;;7.75;3.20;;;;;;;;;;4719147;30;20056;-79
2024/03/18 02:47:42;;;;;;;9.25;3.22;;;;;;;;;;4719092;30;20049;-79
2024/03/18 02:50:14;;;;;;;18.30;3.58;;;;;;;;;;4718932;30;20071;-79
2024/03/18 02:52:45;;;;;;;6.82;3.38;;;;;;;;;;4718675;30;20057;-80
2024/03/18 02:55:14;;;;;;;8.43;2.72;;;;;;;;;;4719338;30;20052;-80
2024/03/18 02:57:42;;;;;;;11.68;3.88;;;;;;;;;;4719049;30;20440;-79
2024/03/18 03:00:11;;;;;;;11.88;3.63;;;;;;;;;;4719050;30;20040;-80
2024/03/18 03:02:39;;;;;;;9.00;3.58;;;;;;;;;;4718890;30;20052;-82
2024/03/18 03:05:09;;;;;;;6.47;3.30;;;;;;;;;;4719754;30;20056;-81
2024/03/18 03:07:37;;;;;;;7.03;2.78;;;;;;;;;;4722400;30;20740;-81
2024/03/18 03:10:06;;;;;;;10.27;3.65;;;;;;;;;;4734544;30;20067;-82
2024/03/18 03:12:34;;;;;;;7.43;3.00;;;;;;;;;;4734914;30;20052;-81
2024/03/18 03:15:02;;;;;;;8.88;3.25;;;;;;;;;;4734455;30;20074;-83
2024/03/18 03:17:33;;;;;;;10.23;3.08;;;;;;;;;;4734927;30;20060;-82
2024/03/18 03:20:07;;;;;;;9.82;3.22;;;;;;;;;;4734377;30;20503;-83
2024/03/18 03:22:36;;;;;;;10.32;3.95;;;;;;;;;;4734278;30;20559;-81
2024/03/18 03:25:05;;;;;;;9.18;3.60;;;;;;;;;;4734511;30;20500;-81
2024/03/18 03:27:34;;;;;;;11.18;3.30;;;;;;;;;;4734321;30;20055;-81
2024/03/18 03:30:03;;;;;;;12.85;3.72;;;;;;;;;;4734761;30;20420;-81
2024/03/18 03:32:31;;;;;;;12.10;3.33;;;;;;;;;;4734711;30;20493;-81
2024/03/18 03:34:59;;;;;;;9.75;2.90;;;;;;;;;;4734204;30;20057;-81
2024/03/18 03:37:28;;;;;;;9.15;2.80;;;;;;;;;;4735561;30;20059;-81
2024/03/18 03:39:57;;;;;;;9.40;4.07;;;;;;;;;;4736676;30;20386;-84
2024/03/18 03:42:27;;;;;;;8.77;3.15;;;;;;;;;;4736606;30;20048;-82
2024/03/18 03:44:55;;;;;;;13.18;5.22;;;;;;;;;;4737083;30;20511;-82
2024/03/18 03:47:23;;;;;;;16.88;6.47;;;;;;;;;;4736361;30;20060;-81
2024/03/18 03:49:52;;;;;;;13.13;4.97;;;;;;;;;;4736615;30;20063;-82
2024/03/18 03:52:20;;;;;;;8.15;3.70;;;;;;;;;;4736640;30;20501;-81
2024/03/18 03:54:49;;;;;;;12.63;3.63;;;;;;;;;;4736744;30;20488;-81
2024/03/18 03:57:18;;;;;;;10.57;4.18;;;;;;;;;;4736727;30;20071;-84
2024/03/18 03:59:47;;;;;;;8.57;3.25;;;;;;;;;;4736417;30;20063;-84
2024/03/18 04:02:16;;;;;;;13.98;4.13;;;;;;;;;;4736470;30;20052;-86
2024/03/18 04:04:45;;;;;;;11.02;3.85;;;;;;;;;;4736350;30;20064;-82
2024/03/18 04:07:17;;;;;;;11.77;5.03;;;;;;;;;;4736459;30;20056;-82
2024/03/18 04:09:46;;;;;;;16.33;5.70;;;;;;;;;;4736603;30;20060;-83
2024/03/18 04:12:14;;;;;;;57.17;9.32;;;;;;;;;;4736424;30;20052;-82
2024/03/18 04:14:43;;;;;;;71.30;9.73;;;;;;;;;;4736378;30;20071;-82
2024/03/18 04:17:11;;;;;;;64.55;8.50;;;;;;;;;;4736304;30;20521;-81
2024/03/18 04:19:40;;;;;;;80.63;9.75;;;;;;;;;;4737106;30;20064;-83
2024/03/18 04:22:09;;;;;;;67.05;10.80;;;;;;;;;;4739276;30;20068;-81
2024/03/18 04:24:37;;;;;;;54.70;9.48;;;;;;;;;;4739280;30;20060;-84
2024/03/18 04:27:05;;;;;;;50.35;10.75;;;;;;;;;;4739607;30;20082;-86
2024/03/18 04:29:34;;;;;;;41.50;10.32;;;;;;;;;;4740036;30;20052;-81
2024/03/18 04:32:05;;;;;;;50.75;10.70;;;;;;;;;;4739442;30;20064;-82
2024/03/18 04:34:33;;;;;;;29.83;9.50;;;;;;;;;;4739932;30;20071;-85
2024/03/18 04:37:02;;;;;;;36.70;8.23;;;;;;;;;;4739433;30;20056;-82
2024/03/18 04:39:30;;;;;;;31.02;8.40;;;;;;;;;;4739220;30;20075;-83
2024/03/18 04:41:58;;;;;;;30.75;9.25;;;;;;;;;;4739555;30;20056;-84
2024/03/18 04:44:26;;;;;;;27.65;8.20;;;;;;;;;;4739332;30;20067;-80
2024/03/18 04:46:55;;;;;;;31.65;8.73;;;;;;;;;;4739244;30;20515;-83
2024/03/18 04:49:23;;;;;;;30.05;9.02;;;;;;;;;;4739310;30;20064;-82
2024/03/18 04:51:52;;;;;;;31.85;8.93;;;;;;;;;;4739003;30;20428;-80
2024/03/18 04:54:20;;;;;;;29.33;9.05;;;;;;;;;;4739313;30;20056;-82
2024/03/18 04:56:48;;;;;;;27.60;8.05;;;;;;;;;;4739241;30;20086;-82
2024/03/18 04:59:17;;;;;;;27.58;8.48;;;;;;;;;;4739393;30;20488;-82
2024/03/18 05:01:45;;;;;;;31.40;8.57;;;;;;;;;;4739071;30;20052;-85
2024/03/18 05:04:13;;;;;;;37.30;8.57;;;;;;;;;;4738867;30;20067;-83
2024/03/18 05:06:41;;;;;;;24.98;8.68;;;;;;;;;;4738915;30;20056;-80
2024/03/18 05:09:09;;;;;;;24.80;8.10;;;;;;;;;;4739044;30;20044;-81
2024/03/18 05:11:37;;;;;;;28.48;7.90;;;;;;;;;;4738620;30;20083;-82
2024/03/18 05:14:06;;;;;;;23.98;7.78;;;;;;;;;;4738574;30;20048;-81
2024/03/18 05:16:38;;;;;;;26.70;8.23;;;;;;;;;;4737956;30;20075;-86
2024/03/18 05:19:07;;;;;;;26.63;7.82;;;;;;;;;;4738807;30;20063;-81
2024/03/18 05:21:35;;;;;;;23.08;7.78;;;;;;;;;;4739206;30;20052;-82
2024/03/18 05:24:04;;;;;;;19.08;7.60;;;;;;;;;;4738651;30;20067;-82
2024/03/18 05:26:32;;;;;;;26.00;8.40;;;;;;;;;;4738356;30;20468;-81
2024/03/18 05:29:01;;;;;;;28.15;7.25;;;;;;;;;;4738552;30;20053;-85
2024/03/18 05:31:31;;;;;;;20.60;7.55;;;;;;;;;;4737547;30;20060;-85
2024/03/18 05:34:04;;;;;;;30.38;8.75;;;;;;;;;;4739010;30;20063;-83
2024/03/18 05:36:32;;;;;;;;;;;;;;;;;;4739506;30;20377;-83
2024/03/18 05:39:00;;;;;;;20.08;7.28;;;;;;;;;;4739138;30;19930;-84
2024/03/18 05:41:29;;;;;;;28.35;7.65;;;;;;;;;;4738127;30;20405;-82
2024/03/18 05:43:57;;;;;;;30.58;7.35;;;;;;;;;;4737960;30;20064;-82
2024/03/18 05:46:26;;;;;;;34.65;7.22;;;;;;;;;;4734306;30;20059;-86
2024/03/18 05:48:54;;;;;;;22.35;8.18;;;;;;;;;;4721513;30;20064;-81
2024/03/18 05:51:22;;;;;;;18.10;7.25;;;;;;;;;;4720711;30;20053;-82
2024/03/18 05:53:50;;;;;;;20.75;7.15;;;;;;;;;;4720869;30;20067;-79
2024/03/18 05:56:19;;;;;;;23.05;6.63;;;;;;;;;;4720775;30;20532;-83
2024/03/18 05:58:47;;;;;;;18.13;6.93;;;;;;;;;;4720679;30;20056;-81
2024/03/18 06:01:15;;;;;;;21.83;7.43;;;;;;;;;;4718459;30;20471;-80
2024/03/18 06:03:47;;;;;;;20.33;6.88;;;;;;;;;;4737884;30;20071;-82
2024/03/18 06:06:15;;;;;;;;;;;;;;;;;;4752731;30;20059;-82
2024/03/18 06:08:43;;;;;;;21.98;5.60;;;;;;;;;;4737968;30;19933;-81
2024/03/18 06:11:11;;;;;;;20.13;6.47;;;;;;;;;;4737420;30;20059;-83
2024/03/18 06:13:40;;;;;;;25.75;7.05;;;;;;;;;;4737774;30;20067;-81
2024/03/18 06:16:09;;;;;;;15.50;6.47;;;;;;;;;;4738063;30;20056;-80
2024/03/18 06:18:37;;;;;;;18.20;6.07;;;;;;;;;;4726674;30;20056;-81
2024/03/18 06:21:06;;;;;;;17.42;5.97;;;;;;;;;;4720126;30;20065;-82
2024/03/18 06:23:34;;;;;;;12.63;4.97;;;;;;;;;;4720277;30;20064;-80
2024/03/18 06:26:03;;;;;;;17.50;5.88;;;;;;;;;;4720354;30;20068;-81
2024/03/18 06:28:33;;;;;;;26.10;6.18;;;;;;;;;;4720022;30;20410;-78
2024/03/18 06:31:01;;;;;;;18.85;5.63;;;;;;;;;;4720623;30;20069;-81
2024/03/18 06:33:29;;;;;;;13.40;5.72;;;;;;;;;;4720027;30;20075;-85
2024/03/18 06:35:58;;;;;;;17.08;5.82;;;;;;;;;;4720100;30;20061;-82
2024/03/18 06:38:26;;;;;;;15.02;5.93;;;;;;;;;;4719785;30;20072;-81
2024/03/18 06:40:54;;;;;;;18.38;5.57;;;;;;;;;;4719785;30;20528;-81
2024/03/18 06:43:22;;;;;;;13.77;5.20;;;;;;;;;;4719572;30;20075;-79
2024/03/18 06:45:51;;;;;;;10.15;4.50;;;;;;;;;;4719896;30;20071;-83
2024/03/18 06:48:19;;;;;;;9.15;4.50;;;;;;;;;;4719554;30;20076;-84
2024/03/18 06:50:47;;;;;;;14.85;5.05;;;;;;;;;;4719647;30;20068;-83
2024/03/18 06:53:16;;;;;;;17.13;5.30;;;;;;;;;;4719747;30;20064;-84
2024/03/18 06:55:44;;;;;;;20.17;4.78;;;;;;;;;;4719088;30;20060;-81
2024/03/18 06:58:14;;;;;;;20.35;5.38;;;;;;;;;;4719676;30;20056;-80
2024/03/18 07:00:42;;;;;;;11.75;4.75;;;;;;;;;;4719255;30;20049;-81
2024/03/18 07:03:11;;;;;;;17.95;5.65;;;;;;;;;;4719238;30;20409;-83
2024/03/18 07:05:39;;;;;;;9.88;4.68;;;;;;;;;;4719768;30;20080;-83
2024/03/18 07:08:08;;;;;;;8.95;4.90;;;;;;;;;;4719498;30;20424;-85
2024/03/18 07:10:36;;;;;;;11.40;5.20;;;;;;;;;;4719402;30;20428;-81
2024/03/18 07:13:04;;;;;;;17.88;4.88;;;;;;;;;;4719999;30;20481;-81
2024/03/18 07:15:32;;;;;;;11.60;4.68;;;;;;;;;;4719215;30;20063;-80
2024/03/18 07:18:01;;;;;;;14.60;4.78;;;;;;;;;;4719542;30;20059;-81
2024/03/18 07:20:30;;;;;;;9.13;4.60;;;;;;;;;;4719500;30;20071;-82
2024/03/18 07:22:58;;;;;;;12.43;4.88;;;;;;;;;;4719096;30;20394;-82
2024/03/18 07:25:26;;;;;;;37.42;6.13;;;;;;;;;;4719459;30;20425;-81
2024/03/18 07:27:54;;;;;;;10.07;5.00;;;;;;;;;;4719142;30;20063;-81
2024/03/18 07:30:22;;;;;;;21.70;4.68;;;;;;;;;;4719177;30;20061;-84
2024/03/18 07:32:51;;;;;;;9.85;4.80;;;;;;;;;;4719669;30;20049;-82
2024/03/18 07:35:19;;;;;;;13.77;5.03;;;;;;;;;;4719467;30;20064;-83
2024/03/18 07:37:47;;;;;;;43.40;5.85;;;;;;;;;;4720302;30;20409;-82
2024/03/18 07:40:15;;;;;;;10.95;4.95;;;;;;;;;;4719205;30;20531;-87
2024/03/18 07:42:44;;;;;;;14.90;5.18;;;;;;;;;;4719070;30;20060;-82
2024/03/18 07:45:12;;;;;;;61.45;5.65;;;;;;;;;;4720692;30;20071;-81
2024/03/18 07:47:40;;;;;;;22.67;4.80;;;;;;;;;;4724081;30;20064;-82
2024/03/18 07:50:10;;;;;;;63.95;6.22;;;;;;;;;;4726338;30;20059;-82
2024/03/18 07:52:38;;;;;;;75.03;6.13;;;;;;;;;;4723018;30;20067;-81
2024/03/18 07:55:06;;;;;;;12.27;4.63;;;;;;;;;;4734548;30;20064;-79
2024/03/18 07:57:35;;;;;;;46.03;5.20;;;;;;;;;;4737797;30;20060;-79
2024/03/18 08:00:06;;;;;;;22.90;4.30;;;;;;;;;;4738225;30;20060;-79
2024/03/18 08:02:39;;;;;;;22.08;4.45;;;;;;;;;;4753344;30;20048;-79
2024/03/18 08:05:08;;;;;;;13.73;4.57;;;;;;;;;;4724961;30;20052;-83
2024/03/18 08:07:36;;;;;;;21.83;4.68;;;;;;;;;;4736484;30;20048;-81
2024/03/18 08:10:05;;;;;;;24.63;4.15;;;;;;;;;;4742325;30;20064;-81
2024/03/18 08:12:33;;;;;;;19.88;4.05;;;;;;;;;;4742229;30;20060;-84
2024/03/18 08:15:03;;;;;;;12.20;3.78;;;;;;;;;;4730944;30;20060;-83
2024/03/18 08:17:31;;;;;;;8.70;3.60;;;;;;;;;;4724962;30;20505;-81
2024/03/18 08:19:59;;;;;;;21.17;3.33;;;;;;;;;;4710821;30;20504;-81
2024/03/18 08:22:27;;;;;;;12.55;3.10;;;;;;;;;;4734030;30;20067;-87
2024/03/18 08:24:55;;;;;;;9.73;3.13;;;;;;;;;;4741727;30;20067;-83
2024/03/18 08:27:26;;;;;;;24.92;3.08;;;;;;;;;;4742018;30;20063;-83
2024/03/18 08:29:54;;;;;;;15.25;3.00;;;;;;;;;;4742903;30;20063;-81
2024/03/18 08:32:22;;;;;;;9.48;2.72;;;;;;;;;;4741560;30;20064;-85
2024/03/18 08:34:50;;;;;;;13.27;3.00;;;;;;;;;;4741930;30;20456;-86
2024/03/18 08:37:21;;;;;;;19.05;3.30;;;;;;;;;;4741547;30;20064;-81
2024/03/18 08:39:52;;;;;;;21.73;3.60;;;;;;;;;;4742065;30;20104;-83
2024/03/18 08:42:21;;;;;;;24.52;3.35;;;;;;;;;;4742060;30;20492;-82
2024/03/18 08:44:49;;;;;;;11.88;2.75;;;;;;;;;;4727797;30;20048;-86
2024/03/18 08:47:20;;;;;;;16.17;2.53;;;;;;;;;;4741869;30;20055;-83
2024/03/18 08:49:49;;;;;;;6.05;2.33;;;;;;;;;;4731808;30;20543;-84
2024/03/18 08:52:17;;;;;;;4.10;2.40;;;;;;;;;;4723913;30;20078;-87
2024/03/18 08:54:47;;;;;;;6.07;2.95;;;;;;;;;;4724034;30;20425;-82
2024/03/18 08:57:15;;;;;;;15.80;2.55;;;;;;;;;;4724254;30;20056;-84
2024/03/18 08:59:44;;;;;;;6.53;2.50;;;;;;;;;;4723905;30;20055;-81
2024/03/18 09:02:12;;;;;;;8.82;2.25;;;;;;;;;;4723893;30;20496;-81
2024/03/18 09:04:40;;;;;;;4.70;1.95;;;;;;;;;;4738734;30;20064;-82
2024/03/18 09:07:09;;;;;;;4.65;2.08;;;;;;;;;;4738066;30;20083;-81
2024/03/18 09:09:37;;;;;;;7.32;2.00;;;;;;;;;;4739061;30;20071;-86
2024/03/18 09:12:05;;;;;;;6.35;1.95;;;;;;;;;;4738972;30;20068;-82
2024/03/18 09:14:33;;;;;;;6.63;2.63;;;;;;;;;;4739601;30;20404;-84
2024/03/18 09:17:02;;;;;;;15.27;2.55;;;;;;;;;;4738931;30;20048;-82
2024/03/18 09:19:31;;;;;;;7.40;2.38;;;;;;;;;;4739323;30;20222;-81
2024/03/18 09:21:59;;;;;;;20.15;2.25;;;;;;;;;;4738682;30;20071;-84
2024/03/18 09:24:28;;;;;;;26.65;2.47;;;;;;;;;;4738895;30;20063;-81
2024/03/18 09:27:05;;;;;;;8.57;2.40;;;;;;;;;;4739845;30;20060;-81
2024/03/18 09:29:35;;;;;;;14.70;2.70;;;;;;;;;;4738293;30;20063;-83
2024/03/18 09:32:03;;;;;;;15.85;2.75;;;;;;;;;;4738887;30;20052;-82
2024/03/18 09:34:32;;;;;;;21.95;5.03;;;;;;;;;;4738395;30;20428;-82
2024/03/18 09:37:00;;;;;;;30.17;5.32;;;;;;;;;;4738857;30;20044;-81
2024/03/18 09:39:28;;;;;;;20.10;3.05;;;;;;;;;;4738681;30;20041;-82
2024/03/18 09:41:56;;;;;;;11.88;2.40;;;;;;;;;;4738892;30;20488;-82
2024/03/18 09:44:25;;;;;;;10.18;2.85;;;;;;;;;;4738842;30;20055;-81
2024/03/18 09:46:54;;;;;;;6.00;2.28;;;;;;;;;;4736409;30;20500;-81
2024/03/18 09:49:26;;;;;;;16.98;2.20;;;;;;;;;;4738811;30;20060;-82
2024/03/18 09:51:55;;;;;;;3.83;2.00;;;;;;;;;;4738886;30;20055;-81
2024/03/18 09:54:23;;;;;;;10.43;2.60;;;;;;;;;;4735283;30;20433;-81
2024/03/18 09:57:11;;;;;;;13.75;2.45;;;;;;;;;;4720223;30;20048;-81
2024/03/18 09:59:42;;;;;;;35.10;4.43;;;;;;;;;;4719067;30;20047;-84
2024/03/18 10:02:16;;;;;;;2.83;1.80;;;;;;;;;;4719930;30;20048;-82
2024/03/18 10:04:47;;;;;;;8.68;2.50;;;;;;;;;;4720192;30;20493;-80
2024/03/18 10:07:17;;;;;;;9.25;2.22;;;;;;;;;;4720028;30;20425;-80
2024/03/18 10:09:47;;;;;;;13.93;2.47;;;;;;;;;;4719696;30;20053;-81
2024/03/18 10:12:17;;;;;;;7.15;2.70;;;;;;;;;;4719870;30;20052;-82
2024/03/18 10:14:45;;;;;;;34.55;4.07;;;;;;;;;;4719923;30;20485;-81
2024/03/18 10:17:15;;;;;;;31.65;2.60;;;;;;;;;;4719732;30;20419;-82
2024/03/18 10:19:44;;;;;;;12.00;2.33;;;;;;;;;;4705504;30;20424;-85
2024/03/18 10:22:13;;;;;;;18.50;2.42;;;;;;;;;;4719547;30;20052;-85
2024/03/18 10:24:43;;;;;;;16.85;2.58;;;;;;;;;;4719516;30;20064;-82
2024/03/18 10:27:13;;;;;;;6.07;2.40;;;;;;;;;;4717609;30;20060;-86
2024/03/18 10:29:41;;;;;;;8.57;2.20;;;;;;;;;;4719953;30;20519;-86
2024/03/18 10:32:27;;;;;;;10.50;2.00;;;;;;;;;;4720618;30;20493;-87
2024/03/18 10:35:01;;;;;;;5.35;2.13;;;;;;;;;;4719800;30;20048;-83
2024/03/18 10:37:32;;;;;;;4.20;2.30;;;;;;;;;;4719576;30;20045;-82
2024/03/18 10:40:08;;;;;;;5.10;2.22;;;;;;;;;;4717814;30;20531;-87
2024/03/18 10:42:44;;;;;;;4.45;2.03;;;;;;;;;;4703161;30;20048;-85
2024/03/18 10:45:12;;;;;;;3.05;1.85;;;;;;;;;;4720617;30;20049;-81
2024/03/18 10:47:43;;;;;;;4.15;1.80;;;;;;;;;;4723872;30;20056;-85
2024/03/18 10:50:14;;;;;;;4.25;1.77;;;;;;;;;;4702326;30;20061;-80
2024/03/18 10:52:43;;;;;;;;;;;;;;;;;;4729839;30;20048;-81
2024/03/18 10:55:20;;;;;;;5.93;2.10;;;;;;;;;;4736977;30;19933;-84
2024/03/18 10:57:54;;;;;;;5.57;1.88;;;;;;;;;;4728462;30;20415;-81
2024/03/18 11:00:25;;;;;;;6.68;2.28;;;;;;;;;;4732957;30;20063;-85
2024/03/18 11:03:00;;;;;;;3.88;1.75;;;;;;;;;;4736203;30;20401;-81
2024/03/18 11:05:32;;;;;;;2.83;1.80;;;;;;;;;;4735431;30;20424;-84
2024/03/18 11:08:06;;;;;;;4.60;1.88;;;;;;;;;;4735693;30;20051;-84
2024/03/18 11:10:39;;;;;;;4.60;1.90;;;;;;;;;;4735210;30;20048;-85
2024/03/18 11:13:11;;;;;;;5.53;2.83;;;;;;;;;;4736427;30;20051;-84
2024/03/18 11:15:41;;;;;;;15.85;3.40;;;;;;;;;;4736793;30;20056;-82
2024/03/18 11:18:09;;;;;;;5.80;3.05;;;;;;;;;;4736070;30;20063;-86
2024/03/18 11:20:46;;;;;;;5.80;3.10;;;;;;;;;;4735893;30;20048;-83
2024/03/18 11:23:20;;;;;;;6.38;2.92;;;;;;;;;;4734546;30;20048;-82
2024/03/18 11:26:06;;;;;;;7.35;2.72;;;;;;;;;;4736119;30;20048;-80
2024/03/18 11:28:41;;;;;;;4.97;2.30;;;;;;;;;;4733618;30;20061;-84
2024/03/18 11:31:19;;;;;;;5.70;2.22;;;;;;;;;;4734026;30;20516;-87
2024/03/18 11:33:49;;;;;;;4.65;2.30;;;;;;;;;;4736143;30;20519;-81
2024/03/18 11:36:20;;;;;;;5.95;2.67;;;;;;;;;;4735767;30;20063;-80
2024/03/18 11:38:50;;;;;;;6.28;2.55;;;;;;;;;;4736594;30;20052;-84
2024/03/18 11:41:19;;;;;;;3.47;1.80;;;;;;;;;;4735789;30;20059;-81
2024/03/18 11:43:50;;;;;;;4.10;2.05;;;;;;;;;;4735728;30;20048;-79
2024/03/18 11:46:19;;;;;;;6.05;2.20;;;;;;;;;;4736283;30;20071;-80
2024/03/18 11:48:47;;;;;;;9.68;3.05;;;;;;;;;;4735910;30;20052;-83
2024/03/18 11:51:17;;;;;;;6.65;1.95;;;;;;;;;;4736049;30;20420;-81
2024/03/18 11:53:46;;;;;;;7.65;2.90;;;;;;;;;;4735855;30;20059;-81
2024/03/18 11:56:14;;;;;;;6.53;2.28;;;;;;;;;;4735203;30;20500;-80
2024/03/18 11:58:42;;;;;;;7.78;2.90;;;;;;;;;;4735323;30;20056;-79
2024/03/18 12:01:11;;;;;;;5.97;2.53;;;;;;;;;;4735998;30;20050;-82
2024/03/18 12:03:39;;;;;;;12.98;4.43;;;;;;;;;;4735787;30;20071;-80
2024/03/18 12:06:08;;;;;;;11.55;4.70;;;;;;;;;;4735955;30;20052;-79
2024/03/18 12:08:37;;;;;;;8.32;3.63;;;;;;;;;;4735741;30;20060;-81
2024/03/18 12:11:05;;;;;;;11.35;4.53;;;;;;;;;;4734909;30;20544;-80
2024/03/18 12:13:33;;;;;;;12.07;5.97;;;;;;;;;;4735784;30;20055;-80
2024/03/18 12:16:06;;;;;;;13.38;5.57;;;;;;;;;;4736307;30;20495;-81
2024/03/18 12:18:35;;;;;;;18.70;6.60;;;;;;;;;;4735814;30;20072;-80
2024/03/18 12:21:04;;;;;;;10.93;4.93;;;;;;;;;;4735681;30;20056;-81
2024/03/18 12:29:22;;;;;;;14.40;5.05;;;;;;;;;;4730841;30;20056;-81
2024/03/18 12:31:54;;;;;;;10.95;4.72;;;;;;;;;;4734650;30;20049;-80
2024/03/18 12:34:24;;;;;;;11.27;4.57;;;;;;;;;;4736064;30;20416;-81
2024/03/18 12:36:53;;;;;;;11.38;4.38;;;;;;;;;;4735578;30;20523;-82
2024/03/18 12:39:22;;;;;;;9.13;4.13;;;;;;;;;;4734672;30;20048;-81
2024/03/18 12:41:51;;;;;;;10.32;3.72;;;;;;;;;;4737614;30;20048;-77
2024/03/18 12:44:19;;;;;;;9.73;3.92;;;;;;;;;;4738717;30;20409;-79
2024/03/18 12:46:47;;;;;;;8.80;3.80;;;;;;;;;;4736984;30;20048;-81
2024/03/18 12:49:16;;;;;;;8.32;2.90;;;;;;;;;;4738644;30;20052;-79
2024/03/18 12:51:44;;;;;;;11.05;2.58;;;;;;;;;;4739280;30;20052;-82
2024/03/18 12:54:13;;;;;;;12.20;3.53;;;;;;;;;;4738615;30;20420;-79
2024/03/18 12:56:41;;;;;;;6.03;2.67;;;;;;;;;;4737988;30;20052;-80
2024/03/18 12:59:09;;;;;;;5.43;2.13;;;;;;;;;;4738359;30;20059;-79
2024/03/18 13:01:38;;;;;;;4.95;2.30;;;;;;;;;;4738022;30;20060;-78
2024/03/18 13:04:08;;;;;;;7.97;2.72;;;;;;;;;;4722324;30;20068;-80
2024/03/18 13:06:36;;;;;;;7.32;2.47;;;;;;;;;;4728224;30;20067;-78
2024/03/18 13:09:04;;;;;;;7.28;2.17;;;;;;;;;;4716904;30;20052;-80
2024/03/18 13:11:32;;;;;;;6.53;2.35;;;;;;;;;;4720043;30;20075;-79
2024/03/18 13:14:01;;;;;;;5.00;2.25;;;;;;;;;;4721183;30;20048;-80
2024/03/18 13:16:29;;;;;;;4.47;1.85;;;;;;;;;;4720522;30;20048;-78
2024/03/18 13:18:57;;;;;;;3.25;1.80;;;;;;;;;;4720671;30;20052;-80
2024/03/18 13:21:25;;;;;;;6.53;2.20;;;;;;;;;;4723500;30;20523;-78
2024/03/18 13:23:54;;;;;;;3.30;1.73;;;;;;;;;;4737297;30;20071;-79
2024/03/18 13:26:22;;;;;;;4.80;1.90;;;;;;;;;;4738027;30;20056;-82
2024/03/18 13:28:50;;;;;;;4.20;1.42;;;;;;;;;;4738023;30;20052;-79
2024/03/18 13:31:22;;;;;;;4.53;1.63;;;;;;;;;;4738086;30;20059;-79
2024/03/18 13:33:51;;;;;;;3.72;1.45;;;;;;;;;;4738008;30;20052;-79
2024/03/18 13:36:19;;;;;;;4.93;1.65;;;;;;;;;;4737619;30;20048;-78
2024/03/18 13:38:48;;;;;;;4.03;1.45;;;;;;;;;;4737878;30;20048;-80
2024/03/18 13:41:21;;;;;;;4.45;1.80;;;;;;;;;;4737712;30;20048;-82
2024/03/18 13:43:49;;;;;;;4.38;1.40;;;;;;;;;;4737632;30;20048;-80
2024/03/18 13:46:18;;;;;;;3.90;1.20;;;;;;;;;;4737337;30;20055;-81
2024/03/18 13:48:46;;;;;;;3.65;1.70;;;;;;;;;;4736541;30;20504;-80
2024/03/18 13:51:15;;;;;;;3.25;1.25;;;;;;;;;;4737182;30;20036;-80
2024/03/18 13:53:44;;;;;;;4.70;1.70;;;;;;;;;;4737304;30;20048;-81
2024/03/18 13:56:15;;;;;;;9.20;1.83;;;;;;;;;;4737196;30;20064;-78
2024/03/18 13:58:43;;;;;;;4.03;1.25;;;;;;;;;;4737269;30;20056;-81
2024/03/18 14:01:15;;;;;;;4.43;1.20;;;;;;;;;;4737699;30;20476;-82
2024/03/18 14:03:44;;;;;;;4.35;1.52;;;;;;;;;;4736986;30;20067;-80
2024/03/18 14:06:15;;;;;;;3.65;1.02;;;;;;;;;;4737398;30;20060;-79
2024/03/18 14:08:44;;;;;;;2.30;1.20;;;;;;;;;;4736272;30;20497;-81
2024/03/18 14:11:14;;;;;;;3.08;1.20;;;;;;;;;;4736523;30;20895;-81
2024/03/18 14:13:43;;;;;;;2.10;1.13;;;;;;;;;;4735962;30;20546;-82
2024/03/18 14:16:13;;;;;;;2.90;1.20;;;;;;;;;;4736339;30;20416;-81
2024/03/18 14:18:41;;;;;;;5.47;1.30;;;;;;;;;;4737221;30;20056;-83
2024/03/18 14:21:16;;;;;;;4.45;1.15;;;;;;;;;;4737272;30;20055;-79
2024/03/18 14:23:45;;;;;;;4.05;1.23;;;;;;;;;;4736900;30;20500;-81
2024/03/18 14:26:14;;;;;;;2.30;1.00;;;;;;;;;;4736415;30;20556;-83
2024/03/18 14:28:43;;;;;;;3.33;1.30;;;;;;;;;;4736608;30;20052;-81
2024/03/18 14:31:12;;;;;;;4.00;1.10;;;;;;;;;;4736626;30;20052;-83
2024/03/18 14:33:40;;;;;;;3.05;1.23;;;;;;;;;;4730337;30;20439;-81
2024/03/18 14:36:09;;;;;;;2.35;1.20;;;;;;;;;;4736249;30;20040;-83
2024/03/18 14:38:38;;;;;;;2.35;1.48;;;;;;;;;;4737102;30;20420;-81
2024/03/18 14:41:08;;;;;;;2.45;0.50;;;;;;;;;;4736532;30;20056;-80
2024/03/18 14:43:37;;;;;;;0.98;0.50;;;;;;;;;;4737109;30;20052;-83
2024/03/18 14:46:05;;;;;;;0.63;0.50;;;;;;;;;;4737146;30;20041;-81
2024/03/18 14:48:34;;;;;;;1.98;0.50;;;;;;;;;;4737249;30;20052;-83
2024/03/18 14:51:05;;;;;;;0.80;0.40;;;;;;;;;;4723587;30;20063;-82
2024/03/18 14:53:35;;;;;;;0.70;0.50;;;;;;;;;;4737481;30;20067;-82
2024/03/18 14:56:04;;;;;;;1.55;0.32;;;;;;;;;;4737674;30;20492;-82